Onweer van: 17-08-2018 02:59 tot: 03:59 waarschuwing voor: Onweer niveau: Geel info button
nederlands:
Vannacht trekt deze storing zeer langzaam verder landinwaarts en verwachten we vooral in het centrale deel plaatselijk veel regen en kans op onweer. Pas op het einde van de nacht bereikt de stilaan afzwakkende storing het oosten.Hier en daar kan er dus wateroverlast voorkomen.

français:
Cette nuit, la perturbation progressera lentement vers l'interieur des terres. Surtout la partie centrale du pays devra composer avec des pluies intenses et un risque d'orages. En fin de nuit seulement, la perturbation touchera l'est.Ici et la, des debordements des eaux sont possibles. 

Regen van: 17-08-2018 02:59 tot: 03:59 waarschuwing voor: Regen niveau: Geel info button
nederlands:
Vannacht trekt deze storing zeer langzaam verder landinwaarts en verwachten we vooral in het centrale deel plaatselijk veel regen en kans op onweer. Pas op het einde van de nacht bereikt de stilaan afzwakkende storing het oosten.Hier en daar kan er dus wateroverlast voorkomen.

français:
Cette nuit, la perturbation progressera lentement vers l'interieur des terres. Surtout la partie centrale du pays devra composer avec des pluies intenses et un risque d'orages. En fin de nuit seulement, la perturbation touchera l'est.Ici et la, des debordements des eaux sont possibles. 



waarschuwing voor Onweer Meer informatie blitzortung!


waarschuwing voor Regen Meer informatie rain snow radar


Bezoek onze andere website:

Template documentation
and downloads

And another site

Forum Leuven-template

EUWEATHER.EU

Verwachtingen Meteociel


U vindt ons ook hier:

Het Weer Aktueel

UK Metoffice

European Weather Network

WeatherCloud

Weather Underground

Benelux Weer Netwerk

AWEKAS

WeatherlinkIP

HAMweather, WeatherForYou, PWS Weather

Wetterpage 24

Wetter.com



METAR rapporten vliegvelden

   
EBAW - Antwerp
Gewijzigd: 17-08-2018 03:20
Buien, Regen, Grotendeels bewolkt  
Buien, Regen, Grotendeels bewolkt  
   Wind: Westen 11.1 km/h
Wind: Westen 11.1 km/h
Temperatuur: 16°C
Dauwpunt: 15°C
Vochtigheid: 94%
Barometer: 1016 hPa
Bewolking: Grotendeels bewolkt
Zicht: meer dan 10 km
Bewolking: Licht bewolkt 300 ft,
Grotendeels bewolkt 1000 ft,
Grotendeels bewolkt 2100 ft
EBAW 170120Z AUTO 26006KT 9999 -SHRA FEW003/// BKN010/// BKN021/// 16/15 Q1016 RESHRA
EBLG - Liège
Gewijzigd: 17-08-2018 03:20
Licht bewolkt  
Licht bewolkt  
   Wind: NNW 16.7 km/h
Wind: NNW 16.7 km/h
Temperatuur: 17°C
Dauwpunt: 15°C
Vochtigheid: 88%
Barometer: 1016 hPa
Bewolking: Licht bewolkt
Zicht: meer dan 10 km
Bewolking: Licht bewolkt 1300 ft
EBLG 170120Z 34009KT 9999 FEW013 17/15 Q1016 TEMPO 4000 TSRA BKN014CB
EBCV - Mons/Bergen
Gewijzigd: 17-08-2018 03:25
Zware buien, Bewolking  
Zware buien, Bewolking  
   Wind: NW 5.6 km/h
Wind: NW 5.6 km/h
Temperatuur: 16°C
Dauwpunt: 16°C
Vochtigheid: 100%
Barometer: 1017 hPa
Bewolking: Bewolking
Zicht: 2 km
Bewolking: Grotendeels bewolkt 600 ft,
Bewolking 8000 ft
EBCV 170125Z AUTO 32003KT 2100 +RA BKN006/// OVC080/// 16/16 Q1017 YLO
EHBK - Maastricht
Gewijzigd: 17-08-2018 03:25
Licht bewolkt  
Licht bewolkt  
   Wind: Noorden 16.7 km/h
Wind: Noorden 16.7 km/h
Temperatuur: 18°C
Dauwpunt: 15°C
Vochtigheid: 83%
Barometer: 1015 hPa
Bewolking: Licht bewolkt
Zicht: meer dan 10 km
Bewolking: Licht bewolkt 2900 ft
EHBK 170125Z AUTO 35009KT 310V040 9999 FEW029 18/15 Q1015
ELLX - Luxemburg
Gewijzigd: 17-08-2018 03:20
Helder  
Helder  
   Wind: NNO 14.8 km/h
Wind: NNO 14.8 km/h
Temperatuur: 20°C
Dauwpunt: 14°C
Vochtigheid: 69%
Barometer: 1014 hPa
Bewolking: Helder
Zicht: meer dan 10 km
Bewolking: Helder
ELLX 170120Z AUTO 03008KT 9999 NCD 20/14 Q1014 NOSIG
EBOS - Oostende
Gewijzigd: 17-08-2018 03:20
Licht bewolkt  
Licht bewolkt  
   Wind: WNW 18.5 km/h
Wind: WNW 18.5 km/h
Temperatuur: 17°C
Dauwpunt: 13°C
Vochtigheid: 77%
Barometer: 1016 hPa
Bewolking: Licht bewolkt
Zicht: meer dan 10 km
Bewolking: Licht bewolkt 1800 ft
EBOS 170120Z 29010KT 9999 FEW018 17/13 Q1016 NOSIG

Script ontwikkeld door  Saratoga-weather.org Aangepast voor de template door  Weerstation Leuven

Apparatuur in gebruik:

Weerstation
Davis VP2

Weerprogramma
Meteobridge

Weercomputer
Asus WL -330N3G

Webleverancier
Onecom

Davis VP2

Meteobridge

Asus WL -330N3G

Onecom